sensor_id;sensor_type;location;lat;lon;timestamp;P1;durP1;ratioP1;P2;durP2;ratioP2
78053;SDS011;67726;45.636;11.752;2023-12-29T00:00:35;118.77;;;53.47;;
78053;SDS011;67726;45.636;11.752;2023-12-29T00:03:01;118.68;;;52.55;;
78053;SDS011;67726;45.636;11.752;2023-12-29T00:05:27;142.27;;;57.13;;
78053;SDS011;67726;45.636;11.752;2023-12-29T00:07:53;159.80;;;63.77;;
78053;SDS011;67726;45.636;11.752;2023-12-29T00:10:19;130.75;;;58.17;;
78053;SDS011;67726;45.636;11.752;2023-12-29T00:12:44;124.87;;;56.00;;
78053;SDS011;67726;45.636;11.752;2023-12-29T00:15:10;123.32;;;57.47;;
78053;SDS011;67726;45.636;11.752;2023-12-29T00:17:36;119.17;;;54.57;;
78053;SDS011;67726;45.636;11.752;2023-12-29T00:20:05;95.88;;;49.92;;
78053;SDS011;67726;45.636;11.752;2023-12-29T00:22:35;106.80;;;52.90;;
78053;SDS011;67726;45.636;11.752;2023-12-29T00:25:00;95.90;;;48.23;;
78053;SDS011;67726;45.636;11.752;2023-12-29T00:27:26;100.10;;;51.35;;
78053;SDS011;67726;45.636;11.752;2023-12-29T00:29:52;108.37;;;53.10;;
78053;SDS011;67726;45.636;11.752;2023-12-29T00:32:17;109.87;;;53.90;;
78053;SDS011;67726;45.636;11.752;2023-12-29T00:34:43;95.75;;;48.80;;
78053;SDS011;67726;45.636;11.752;2023-12-29T00:37:09;96.43;;;50.10;;
78053;SDS011;67726;45.636;11.752;2023-12-29T00:39:34;93.53;;;49.95;;
78053;SDS011;67726;45.636;11.752;2023-12-29T00:42:04;96.10;;;49.55;;
78053;SDS011;67726;45.636;11.752;2023-12-29T00:44:33;99.47;;;50.57;;
78053;SDS011;67726;45.636;11.752;2023-12-29T00:47:00;91.13;;;46.70;;
78053;SDS011;67726;45.636;11.752;2023-12-29T00:49:26;85.38;;;46.25;;
78053;SDS011;67726;45.636;11.752;2023-12-29T00:51:52;87.57;;;46.83;;
78053;SDS011;67726;45.636;11.752;2023-12-29T00:54:18;94.20;;;47.33;;
78053;SDS011;67726;45.636;11.752;2023-12-29T00:56:48;94.40;;;48.83;;
78053;SDS011;67726;45.636;11.752;2023-12-29T00:59:14;91.68;;;44.63;;
78053;SDS011;67726;45.636;11.752;2023-12-29T01:01:40;94.47;;;46.83;;
78053;SDS011;67726;45.636;11.752;2023-12-29T01:04:06;85.28;;;43.42;;
78053;SDS011;67726;45.636;11.752;2023-12-29T01:06:31;88.07;;;46.20;;
78053;SDS011;67726;45.636;11.752;2023-12-29T01:08:57;94.60;;;44.95;;
78053;SDS011;67726;45.636;11.752;2023-12-29T01:11:23;86.77;;;42.63;;
78053;SDS011;67726;45.636;11.752;2023-12-29T01:13:48;83.30;;;43.75;;
78053;SDS011;67726;45.636;11.752;2023-12-29T01:16:14;86.17;;;46.00;;
78053;SDS011;67726;45.636;11.752;2023-12-29T01:18:40;90.97;;;45.53;;
78053;SDS011;67726;45.636;11.752;2023-12-29T01:21:05;88.53;;;44.40;;
78053;SDS011;67726;45.636;11.752;2023-12-29T01:23:31;95.57;;;46.20;;
78053;SDS011;67726;45.636;11.752;2023-12-29T01:25:57;82.82;;;43.90;;
78053;SDS011;67726;45.636;11.752;2023-12-29T01:28:23;78.27;;;42.13;;
78053;SDS011;67726;45.636;11.752;2023-12-29T01:30:50;86.90;;;46.35;;
78053;SDS011;67726;45.636;11.752;2023-12-29T01:33:15;85.85;;;43.20;;
78053;SDS011;67726;45.636;11.752;2023-12-29T01:35:41;86.50;;;45.25;;
78053;SDS011;67726;45.636;11.752;2023-12-29T01:38:07;77.40;;;42.90;;
78053;SDS011;67726;45.636;11.752;2023-12-29T01:40:41;88.68;;;45.13;;
78053;SDS011;67726;45.636;11.752;2023-12-29T01:43:11;86.33;;;43.93;;
78053;SDS011;67726;45.636;11.752;2023-12-29T01:45:37;78.53;;;43.65;;
78053;SDS011;67726;45.636;11.752;2023-12-29T01:48:02;86.70;;;45.33;;
78053;SDS011;67726;45.636;11.752;2023-12-29T01:50:29;87.53;;;46.57;;
78053;SDS011;67726;45.636;11.752;2023-12-29T01:52:54;78.68;;;45.33;;
78053;SDS011;67726;45.636;11.752;2023-12-29T01:55:22;81.18;;;44.25;;
78053;SDS011;67726;45.636;11.752;2023-12-29T01:57:50;82.68;;;43.95;;
78053;SDS011;67726;45.636;11.752;2023-12-29T02:00:16;86.43;;;44.30;;
78053;SDS011;67726;45.636;11.752;2023-12-29T02:02:43;79.53;;;41.33;;
78053;SDS011;67726;45.636;11.752;2023-12-29T02:05:11;79.80;;;41.97;;
78053;SDS011;67726;45.636;11.752;2023-12-29T02:07:41;75.03;;;40.40;;
78053;SDS011;67726;45.636;11.752;2023-12-29T02:10:07;83.55;;;42.20;;
78053;SDS011;67726;45.636;11.752;2023-12-29T02:12:34;82.35;;;41.92;;
78053;SDS011;67726;45.636;11.752;2023-12-29T02:15:03;84.33;;;41.73;;
78053;SDS011;67726;45.636;11.752;2023-12-29T02:17:38;83.40;;;41.25;;
78053;SDS011;67726;45.636;11.752;2023-12-29T02:20:09;77.80;;;40.03;;
78053;SDS011;67726;45.636;11.752;2023-12-29T02:22:36;82.10;;;42.63;;
78053;SDS011;67726;45.636;11.752;2023-12-29T02:25:02;84.53;;;45.33;;
78053;SDS011;67726;45.636;11.752;2023-12-29T02:27:41;83.75;;;41.92;;
78053;SDS011;67726;45.636;11.752;2023-12-29T02:33:09;85.45;;;44.55;;
78053;SDS011;67726;45.636;11.752;2023-12-29T02:35:42;74.00;;;43.27;;
78053;SDS011;67726;45.636;11.752;2023-12-29T02:38:09;83.20;;;42.80;;
78053;SDS011;67726;45.636;11.752;2023-12-29T02:40:36;78.00;;;42.70;;
78053;SDS011;67726;45.636;11.752;2023-12-29T02:43:02;83.22;;;41.80;;
78053;SDS011;67726;45.636;11.752;2023-12-29T02:45:28;73.50;;;39.20;;
78053;SDS011;67726;45.636;11.752;2023-12-29T02:47:54;82.88;;;40.90;;
78053;SDS011;67726;45.636;11.752;2023-12-29T02:50:19;79.00;;;40.50;;
78053;SDS011;67726;45.636;11.752;2023-12-29T02:52:45;81.78;;;42.35;;
78053;SDS011;67726;45.636;11.752;2023-12-29T02:55:11;84.77;;;42.77;;
78053;SDS011;67726;45.636;11.752;2023-12-29T02:57:37;80.80;;;40.95;;
78053;SDS011;67726;45.636;11.752;2023-12-29T03:00:03;81.75;;;42.65;;
78053;SDS011;67726;45.636;11.752;2023-12-29T03:02:30;77.13;;;42.08;;
78053;SDS011;67726;45.636;11.752;2023-12-29T03:04:56;72.23;;;41.13;;
78053;SDS011;67726;45.636;11.752;2023-12-29T03:07:21;73.97;;;39.87;;
78053;SDS011;67726;45.636;11.752;2023-12-29T03:09:47;81.43;;;42.00;;
78053;SDS011;67726;45.636;11.752;2023-12-29T03:12:13;75.85;;;39.45;;
78053;SDS011;67726;45.636;11.752;2023-12-29T03:14:38;74.97;;;40.07;;
78053;SDS011;67726;45.636;11.752;2023-12-29T03:17:04;76.03;;;39.00;;
78053;SDS011;67726;45.636;11.752;2023-12-29T03:19:30;73.65;;;38.65;;
78053;SDS011;67726;45.636;11.752;2023-12-29T03:21:55;79.20;;;40.70;;
78053;SDS011;67726;45.636;11.752;2023-12-29T03:24:21;74.75;;;40.38;;
78053;SDS011;67726;45.636;11.752;2023-12-29T03:26:47;78.83;;;42.40;;
78053;SDS011;67726;45.636;11.752;2023-12-29T03:29:12;79.20;;;41.92;;
78053;SDS011;67726;45.636;11.752;2023-12-29T03:31:38;71.80;;;34.17;;
78053;SDS011;67726;45.636;11.752;2023-12-29T03:34:06;81.57;;;41.88;;
78053;SDS011;67726;45.636;11.752;2023-12-29T03:36:32;75.80;;;38.60;;
78053;SDS011;67726;45.636;11.752;2023-12-29T03:38:58;80.17;;;41.53;;
78053;SDS011;67726;45.636;11.752;2023-12-29T03:41:24;75.78;;;39.83;;
78053;SDS011;67726;45.636;11.752;2023-12-29T03:43:49;75.80;;;40.53;;
78053;SDS011;67726;45.636;11.752;2023-12-29T03:46:19;77.90;;;40.40;;
78053;SDS011;67726;45.636;11.752;2023-12-29T03:48:45;79.78;;;40.17;;
78053;SDS011;67726;45.636;11.752;2023-12-29T03:51:12;79.27;;;39.33;;
78053;SDS011;67726;45.636;11.752;2023-12-29T03:53:38;78.97;;;40.17;;
78053;SDS011;67726;45.636;11.752;2023-12-29T03:56:12;76.13;;;40.15;;
78053;SDS011;67726;45.636;11.752;2023-12-29T03:58:39;70.00;;;38.93;;
78053;SDS011;67726;45.636;11.752;2023-12-29T04:01:09;72.75;;;37.28;;
78053;SDS011;67726;45.636;11.752;2023-12-29T04:03:38;70.28;;;38.50;;
78053;SDS011;67726;45.636;11.752;2023-12-29T04:06:05;69.90;;;36.77;;
78053;SDS011;67726;45.636;11.752;2023-12-29T04:08:31;67.93;;;37.42;;
78053;SDS011;67726;45.636;11.752;2023-12-29T04:10:57;68.13;;;36.83;;
78053;SDS011;67726;45.636;11.752;2023-12-29T04:13:23;71.17;;;36.20;;
78053;SDS011;67726;45.636;11.752;2023-12-29T04:15:49;64.20;;;35.97;;
78053;SDS011;67726;45.636;11.752;2023-12-29T04:18:14;63.67;;;35.85;;
78053;SDS011;67726;45.636;11.752;2023-12-29T04:20:40;63.33;;;35.00;;
78053;SDS011;67726;45.636;11.752;2023-12-29T04:23:06;64.57;;;36.90;;
78053;SDS011;67726;45.636;11.752;2023-12-29T04:25:32;64.57;;;37.22;;
78053;SDS011;67726;45.636;11.752;2023-12-29T04:27:58;66.35;;;36.20;;
78053;SDS011;67726;45.636;11.752;2023-12-29T04:30:24;65.17;;;34.67;;
78053;SDS011;67726;45.636;11.752;2023-12-29T04:32:50;60.28;;;34.30;;
78053;SDS011;67726;45.636;11.752;2023-12-29T04:35:15;64.33;;;36.43;;
78053;SDS011;67726;45.636;11.752;2023-12-29T04:37:43;62.90;;;33.00;;
78053;SDS011;67726;45.636;11.752;2023-12-29T04:40:10;59.15;;;33.08;;
78053;SDS011;67726;45.636;11.752;2023-12-29T04:42:37;65.40;;;34.67;;
78053;SDS011;67726;45.636;11.752;2023-12-29T04:45:03;65.95;;;35.63;;
78053;SDS011;67726;45.636;11.752;2023-12-29T04:47:29;69.05;;;36.28;;
78053;SDS011;67726;45.636;11.752;2023-12-29T04:49:55;59.30;;;34.77;;
78053;SDS011;67726;45.636;11.752;2023-12-29T04:52:21;64.10;;;36.17;;
78053;SDS011;67726;45.636;11.752;2023-12-29T04:54:47;64.28;;;35.28;;
78053;SDS011;67726;45.636;11.752;2023-12-29T04:57:13;64.03;;;35.83;;
78053;SDS011;67726;45.636;11.752;2023-12-29T04:59:39;56.83;;;32.97;;
78053;SDS011;67726;45.636;11.752;2023-12-29T05:02:04;61.47;;;34.63;;
78053;SDS011;67726;45.636;11.752;2023-12-29T05:04:30;60.97;;;34.10;;
78053;SDS011;67726;45.636;11.752;2023-12-29T05:06:56;57.53;;;33.33;;
78053;SDS011;67726;45.636;11.752;2023-12-29T05:09:21;60.83;;;33.47;;
78053;SDS011;67726;45.636;11.752;2023-12-29T05:11:47;62.93;;;35.33;;
78053;SDS011;67726;45.636;11.752;2023-12-29T05:14:13;58.92;;;32.67;;
78053;SDS011;67726;45.636;11.752;2023-12-29T05:16:41;57.65;;;33.20;;
78053;SDS011;67726;45.636;11.752;2023-12-29T05:19:07;62.15;;;33.80;;
78053;SDS011;67726;45.636;11.752;2023-12-29T05:21:33;56.63;;;31.67;;
78053;SDS011;67726;45.636;11.752;2023-12-29T05:23:59;57.28;;;32.95;;
78053;SDS011;67726;45.636;11.752;2023-12-29T05:26:25;58.13;;;32.65;;
78053;SDS011;67726;45.636;11.752;2023-12-29T05:28:51;59.20;;;33.07;;
78053;SDS011;67726;45.636;11.752;2023-12-29T05:31:16;57.67;;;33.95;;
78053;SDS011;67726;45.636;11.752;2023-12-29T05:33:43;59.95;;;32.10;;
78053;SDS011;67726;45.636;11.752;2023-12-29T05:36:09;54.57;;;32.07;;
78053;SDS011;67726;45.636;11.752;2023-12-29T05:38:38;54.50;;;30.58;;
78053;SDS011;67726;45.636;11.752;2023-12-29T05:41:06;62.28;;;33.55;;
78053;SDS011;67726;45.636;11.752;2023-12-29T05:43:32;64.03;;;35.03;;
78053;SDS011;67726;45.636;11.752;2023-12-29T05:45:58;63.25;;;33.60;;
78053;SDS011;67726;45.636;11.752;2023-12-29T05:48:24;58.43;;;31.73;;
78053;SDS011;67726;45.636;11.752;2023-12-29T05:50:50;58.28;;;32.35;;
78053;SDS011;67726;45.636;11.752;2023-12-29T05:53:16;57.53;;;31.63;;
78053;SDS011;67726;45.636;11.752;2023-12-29T05:55:43;56.00;;;30.70;;
78053;SDS011;67726;45.636;11.752;2023-12-29T05:58:09;58.05;;;31.65;;
78053;SDS011;67726;45.636;11.752;2023-12-29T06:00:35;56.90;;;31.70;;
78053;SDS011;67726;45.636;11.752;2023-12-29T06:03:01;52.20;;;30.57;;
78053;SDS011;67726;45.636;11.752;2023-12-29T06:05:29;57.70;;;31.02;;
78053;SDS011;67726;45.636;11.752;2023-12-29T06:07:55;60.33;;;33.38;;
78053;SDS011;67726;45.636;11.752;2023-12-29T06:10:20;55.93;;;31.13;;
78053;SDS011;67726;45.636;11.752;2023-12-29T06:12:46;57.17;;;30.03;;
78053;SDS011;67726;45.636;11.752;2023-12-29T06:15:12;55.67;;;31.50;;
78053;SDS011;67726;45.636;11.752;2023-12-29T06:17:39;58.13;;;31.20;;
78053;SDS011;67726;45.636;11.752;2023-12-29T06:20:06;66.18;;;34.63;;
78053;SDS011;67726;45.636;11.752;2023-12-29T06:22:32;65.97;;;34.95;;
78053;SDS011;67726;45.636;11.752;2023-12-29T06:24:58;74.57;;;35.93;;
78053;SDS011;67726;45.636;11.752;2023-12-29T06:27:24;68.22;;;35.35;;
78053;SDS011;67726;45.636;11.752;2023-12-29T06:29:50;63.65;;;32.67;;
78053;SDS011;67726;45.636;11.752;2023-12-29T06:32:16;62.37;;;31.40;;
78053;SDS011;67726;45.636;11.752;2023-12-29T06:34:42;67.40;;;34.70;;
78053;SDS011;67726;45.636;11.752;2023-12-29T06:37:08;66.57;;;35.58;;
78053;SDS011;67726;45.636;11.752;2023-12-29T06:39:34;67.40;;;34.80;;
78053;SDS011;67726;45.636;11.752;2023-12-29T06:41:59;71.47;;;34.03;;
78053;SDS011;67726;45.636;11.752;2023-12-29T06:44:25;61.83;;;32.67;;
78053;SDS011;67726;45.636;11.752;2023-12-29T06:46:51;60.17;;;31.13;;
78053;SDS011;67726;45.636;11.752;2023-12-29T06:49:16;62.05;;;31.73;;
78053;SDS011;67726;45.636;11.752;2023-12-29T06:51:42;58.67;;;31.13;;
78053;SDS011;67726;45.636;11.752;2023-12-29T06:54:07;52.20;;;27.60;;
78053;SDS011;67726;45.636;11.752;2023-12-29T06:56:33;51.03;;;26.63;;
78053;SDS011;67726;45.636;11.752;2023-12-29T06:58:59;54.25;;;30.17;;
78053;SDS011;67726;45.636;11.752;2023-12-29T07:01:25;59.40;;;29.67;;
78053;SDS011;67726;45.636;11.752;2023-12-29T07:03:51;54.38;;;29.17;;
78053;SDS011;67726;45.636;11.752;2023-12-29T07:06:16;58.00;;;29.17;;
78053;SDS011;67726;45.636;11.752;2023-12-29T07:08:42;51.50;;;28.90;;
78053;SDS011;67726;45.636;11.752;2023-12-29T07:11:11;57.00;;;28.83;;
78053;SDS011;67726;45.636;11.752;2023-12-29T07:13:39;54.60;;;28.27;;
78053;SDS011;67726;45.636;11.752;2023-12-29T07:16:05;58.37;;;30.50;;
78053;SDS011;67726;45.636;11.752;2023-12-29T07:18:30;62.40;;;29.80;;
78053;SDS011;67726;45.636;11.752;2023-12-29T07:20:56;57.17;;;31.35;;
78053;SDS011;67726;45.636;11.752;2023-12-29T07:23:22;56.77;;;30.57;;
78053;SDS011;67726;45.636;11.752;2023-12-29T07:25:48;87.00;;;39.27;;
78053;SDS011;67726;45.636;11.752;2023-12-29T07:28:14;79.70;;;37.10;;
78053;SDS011;67726;45.636;11.752;2023-12-29T07:30:40;137.30;;;52.08;;
78053;SDS011;67726;45.636;11.752;2023-12-29T07:33:05;120.10;;;47.67;;
78053;SDS011;67726;45.636;11.752;2023-12-29T07:35:31;114.70;;;43.65;;
78053;SDS011;67726;45.636;11.752;2023-12-29T07:37:56;83.47;;;36.87;;
78053;SDS011;67726;45.636;11.752;2023-12-29T07:40:22;84.85;;;37.88;;
78053;SDS011;67726;45.636;11.752;2023-12-29T07:42:48;74.93;;;35.33;;
78053;SDS011;67726;45.636;11.752;2023-12-29T07:45:15;117.63;;;44.97;;
78053;SDS011;67726;45.636;11.752;2023-12-29T07:47:41;98.15;;;41.72;;
78053;SDS011;67726;45.636;11.752;2023-12-29T07:50:07;82.23;;;36.97;;
78053;SDS011;67726;45.636;11.752;2023-12-29T07:52:33;72.15;;;34.97;;
78053;SDS011;67726;45.636;11.752;2023-12-29T07:54:59;67.30;;;34.03;;
78053;SDS011;67726;45.636;11.752;2023-12-29T07:57:25;66.97;;;33.33;;
78053;SDS011;67726;45.636;11.752;2023-12-29T07:59:50;64.07;;;33.35;;
78053;SDS011;67726;45.636;11.752;2023-12-29T08:02:16;72.87;;;37.57;;
78053;SDS011;67726;45.636;11.752;2023-12-29T08:04:42;87.60;;;42.58;;
78053;SDS011;67726;45.636;11.752;2023-12-29T08:07:07;73.77;;;35.43;;
78053;SDS011;67726;45.636;11.752;2023-12-29T08:09:34;72.20;;;34.80;;
78053;SDS011;67726;45.636;11.752;2023-12-29T08:12:00;77.23;;;35.33;;
78053;SDS011;67726;45.636;11.752;2023-12-29T08:14:26;52.10;;;29.87;;
78053;SDS011;67726;45.636;11.752;2023-12-29T08:16:51;53.40;;;29.87;;
78053;SDS011;67726;45.636;11.752;2023-12-29T08:19:17;54.35;;;31.10;;
78053;SDS011;67726;45.636;11.752;2023-12-29T08:21:43;49.90;;;29.07;;
78053;SDS011;67726;45.636;11.752;2023-12-29T08:24:08;51.13;;;29.02;;
78053;SDS011;67726;45.636;11.752;2023-12-29T08:26:42;54.13;;;30.03;;
78053;SDS011;67726;45.636;11.752;2023-12-29T08:29:11;60.53;;;34.85;;
78053;SDS011;67726;45.636;11.752;2023-12-29T08:31:37;62.63;;;32.42;;
78053;SDS011;67726;45.636;11.752;2023-12-29T08:34:03;56.03;;;29.83;;
78053;SDS011;67726;45.636;11.752;2023-12-29T08:36:29;61.92;;;35.10;;
78053;SDS011;67726;45.636;11.752;2023-12-29T08:38:54;60.50;;;33.30;;
78053;SDS011;67726;45.636;11.752;2023-12-29T08:41:21;58.10;;;34.00;;
78053;SDS011;67726;45.636;11.752;2023-12-29T08:43:47;56.87;;;32.87;;
78053;SDS011;67726;45.636;11.752;2023-12-29T08:46:13;70.38;;;36.78;;
78053;SDS011;67726;45.636;11.752;2023-12-29T08:48:39;58.40;;;32.17;;
78053;SDS011;67726;45.636;11.752;2023-12-29T08:51:04;59.38;;;32.80;;
78053;SDS011;67726;45.636;11.752;2023-12-29T08:53:31;58.83;;;30.30;;
78053;SDS011;67726;45.636;11.752;2023-12-29T08:56:01;72.77;;;35.67;;
78053;SDS011;67726;45.636;11.752;2023-12-29T08:58:27;69.05;;;33.65;;
78053;SDS011;67726;45.636;11.752;2023-12-29T09:00:54;63.75;;;32.95;;
78053;SDS011;67726;45.636;11.752;2023-12-29T09:03:19;63.17;;;32.20;;
78053;SDS011;67726;45.636;11.752;2023-12-29T09:05:45;68.07;;;32.43;;
78053;SDS011;67726;45.636;11.752;2023-12-29T09:08:11;68.63;;;33.07;;
78053;SDS011;67726;45.636;11.752;2023-12-29T09:10:36;59.55;;;31.92;;
78053;SDS011;67726;45.636;11.752;2023-12-29T09:13:03;54.55;;;28.40;;
78053;SDS011;67726;45.636;11.752;2023-12-29T09:15:29;56.33;;;29.37;;
78053;SDS011;67726;45.636;11.752;2023-12-29T09:17:55;61.53;;;30.27;;
78053;SDS011;67726;45.636;11.752;2023-12-29T09:20:20;52.97;;;27.97;;
78053;SDS011;67726;45.636;11.752;2023-12-29T09:22:46;47.95;;;26.95;;
78053;SDS011;67726;45.636;11.752;2023-12-29T09:25:12;51.72;;;27.65;;
78053;SDS011;67726;45.636;11.752;2023-12-29T09:27:38;45.77;;;26.37;;
78053;SDS011;67726;45.636;11.752;2023-12-29T09:30:04;48.40;;;27.40;;
78053;SDS011;67726;45.636;11.752;2023-12-29T09:32:30;46.08;;;26.83;;
78053;SDS011;67726;45.636;11.752;2023-12-29T09:34:56;48.23;;;25.13;;
78053;SDS011;67726;45.636;11.752;2023-12-29T09:37:22;46.10;;;24.38;;
78053;SDS011;67726;45.636;11.752;2023-12-29T09:39:47;45.83;;;23.03;;
78053;SDS011;67726;45.636;11.752;2023-12-29T09:42:17;42.08;;;23.23;;
78053;SDS011;67726;45.636;11.752;2023-12-29T09:44:49;44.77;;;24.77;;
78053;SDS011;67726;45.636;11.752;2023-12-29T09:47:22;46.08;;;23.20;;
78053;SDS011;67726;45.636;11.752;2023-12-29T09:49:49;45.95;;;24.98;;
78053;SDS011;67726;45.636;11.752;2023-12-29T09:52:16;45.22;;;23.08;;
78053;SDS011;67726;45.636;11.752;2023-12-29T09:54:43;38.85;;;23.08;;
78053;SDS011;67726;45.636;11.752;2023-12-29T09:57:09;42.90;;;23.57;;
78053;SDS011;67726;45.636;11.752;2023-12-29T09:59:35;52.08;;;28.60;;
78053;SDS011;67726;45.636;11.752;2023-12-29T10:02:04;51.08;;;27.73;;
78053;SDS011;67726;45.636;11.752;2023-12-29T10:04:30;53.20;;;28.70;;
78053;SDS011;67726;45.636;11.752;2023-12-29T10:06:56;51.95;;;27.52;;
78053;SDS011;67726;45.636;11.752;2023-12-29T10:09:25;52.07;;;26.93;;
78053;SDS011;67726;45.636;11.752;2023-12-29T10:11:52;49.35;;;26.83;;
78053;SDS011;67726;45.636;11.752;2023-12-29T10:14:22;45.00;;;26.27;;
78053;SDS011;67726;45.636;11.752;2023-12-29T10:16:59;51.75;;;28.77;;
78053;SDS011;67726;45.636;11.752;2023-12-29T10:19:40;43.55;;;24.20;;
78053;SDS011;67726;45.636;11.752;2023-12-29T10:25:06;42.45;;;22.60;;
78053;SDS011;67726;45.636;11.752;2023-12-29T10:27:32;41.95;;;23.05;;
78053;SDS011;67726;45.636;11.752;2023-12-29T10:29:58;45.90;;;26.48;;
78053;SDS011;67726;45.636;11.752;2023-12-29T10:32:24;47.13;;;26.23;;
78053;SDS011;67726;45.636;11.752;2023-12-29T10:35:06;45.13;;;22.73;;
78053;SDS011;67726;45.636;11.752;2023-12-29T10:37:36;49.60;;;25.63;;
78053;SDS011;67726;45.636;11.752;2023-12-29T10:40:05;45.58;;;24.90;;
78053;SDS011;67726;45.636;11.752;2023-12-29T10:42:31;44.93;;;24.63;;
78053;SDS011;67726;45.636;11.752;2023-12-29T10:45:09;43.63;;;24.08;;
78053;SDS011;67726;45.636;11.752;2023-12-29T10:47:35;44.88;;;22.80;;
78053;SDS011;67726;45.636;11.752;2023-12-29T10:50:02;45.70;;;22.05;;
78053;SDS011;67726;45.636;11.752;2023-12-29T10:52:31;40.43;;;21.17;;
78053;SDS011;67726;45.636;11.752;2023-12-29T10:55:07;38.80;;;20.48;;
78053;SDS011;67726;45.636;11.752;2023-12-29T10:57:34;40.72;;;20.15;;
78053;SDS011;67726;45.636;11.752;2023-12-29T11:00:01;36.83;;;20.70;;
78053;SDS011;67726;45.636;11.752;2023-12-29T11:02:27;36.20;;;19.40;;
78053;SDS011;67726;45.636;11.752;2023-12-29T11:05:03;37.00;;;19.60;;
78053;SDS011;67726;45.636;11.752;2023-12-29T11:07:34;30.13;;;16.80;;
78053;SDS011;67726;45.636;11.752;2023-12-29T11:10:01;33.35;;;18.05;;
78053;SDS011;67726;45.636;11.752;2023-12-29T11:12:29;34.85;;;17.60;;
78053;SDS011;67726;45.636;11.752;2023-12-29T11:15:03;34.72;;;18.50;;
78053;SDS011;67726;45.636;11.752;2023-12-29T11:17:31;37.93;;;18.20;;
78053;SDS011;67726;45.636;11.752;2023-12-29T11:20:03;38.60;;;18.83;;
78053;SDS011;67726;45.636;11.752;2023-12-29T11:22:30;35.60;;;18.90;;
78053;SDS011;67726;45.636;11.752;2023-12-29T11:24:59;37.17;;;19.17;;
78053;SDS011;67726;45.636;11.752;2023-12-29T11:27:29;38.58;;;20.52;;
78053;SDS011;67726;45.636;11.752;2023-12-29T11:29:57;39.80;;;19.77;;
78053;SDS011;67726;45.636;11.752;2023-12-29T11:32:27;42.13;;;19.92;;
78053;SDS011;67726;45.636;11.752;2023-12-29T11:35:19;37.70;;;19.88;;
78053;SDS011;67726;45.636;11.752;2023-12-29T11:43:38;37.83;;;19.10;;
78053;SDS011;67726;45.636;11.752;2023-12-29T11:46:04;39.13;;;19.67;;
78053;SDS011;67726;45.636;11.752;2023-12-29T11:51:27;41.17;;;19.88;;
78053;SDS011;67726;45.636;11.752;2023-12-29T11:53:53;36.05;;;18.50;;
78053;SDS011;67726;45.636;11.752;2023-12-29T11:56:19;35.53;;;18.53;;
78053;SDS011;67726;45.636;11.752;2023-12-29T11:58:45;37.13;;;18.80;;
78053;SDS011;67726;45.636;11.752;2023-12-29T12:01:13;35.22;;;17.33;;
78053;SDS011;67726;45.636;11.752;2023-12-29T12:03:39;33.47;;;17.75;;
78053;SDS011;67726;45.636;11.752;2023-12-29T12:06:04;34.70;;;18.93;;
78053;SDS011;67726;45.636;11.752;2023-12-29T12:08:31;42.57;;;22.30;;
78053;SDS011;67726;45.636;11.752;2023-12-29T12:13:54;43.55;;;23.05;;
78053;SDS011;67726;45.636;11.752;2023-12-29T12:19:07;37.58;;;19.90;;
78053;SDS011;67726;45.636;11.752;2023-12-29T12:21:36;34.83;;;18.67;;
78053;SDS011;67726;45.636;11.752;2023-12-29T12:24:07;37.08;;;18.88;;
78053;SDS011;67726;45.636;11.752;2023-12-29T12:26:33;35.88;;;19.50;;
78053;SDS011;67726;45.636;11.752;2023-12-29T12:29:00;36.42;;;19.67;;
78053;SDS011;67726;45.636;11.752;2023-12-29T12:31:26;38.25;;;20.55;;
78053;SDS011;67726;45.636;11.752;2023-12-29T12:33:58;33.97;;;18.23;;
78053;SDS011;67726;45.636;11.752;2023-12-29T12:36:25;39.85;;;19.02;;
78053;SDS011;67726;45.636;11.752;2023-12-29T12:38:55;33.38;;;18.70;;
78053;SDS011;67726;45.636;11.752;2023-12-29T12:41:22;35.75;;;19.08;;
78053;SDS011;67726;45.636;11.752;2023-12-29T12:46:26;40.03;;;20.07;;
78053;SDS011;67726;45.636;11.752;2023-12-29T12:48:52;36.60;;;19.73;;
78053;SDS011;67726;45.636;11.752;2023-12-29T12:51:20;39.95;;;20.60;;
78053;SDS011;67726;45.636;11.752;2023-12-29T12:53:46;36.17;;;20.40;;
78053;SDS011;67726;45.636;11.752;2023-12-29T12:56:14;36.55;;;19.85;;
78053;SDS011;67726;45.636;11.752;2023-12-29T12:58:41;36.43;;;20.23;;
78053;SDS011;67726;45.636;11.752;2023-12-29T13:01:07;37.97;;;20.25;;
78053;SDS011;67726;45.636;11.752;2023-12-29T13:03:33;36.00;;;20.90;;
78053;SDS011;67726;45.636;11.752;2023-12-29T13:06:02;40.90;;;20.40;;
78053;SDS011;67726;45.636;11.752;2023-12-29T13:08:29;40.75;;;21.15;;
78053;SDS011;67726;45.636;11.752;2023-12-29T13:10:56;33.83;;;18.87;;
78053;SDS011;67726;45.636;11.752;2023-12-29T13:13:23;37.25;;;19.45;;
78053;SDS011;67726;45.636;11.752;2023-12-29T13:15:49;34.88;;;20.38;;
78053;SDS011;67726;45.636;11.752;2023-12-29T13:18:16;40.45;;;19.65;;
78053;SDS011;67726;45.636;11.752;2023-12-29T13:20:46;34.17;;;20.23;;
78053;SDS011;67726;45.636;11.752;2023-12-29T13:23:12;41.38;;;21.65;;
78053;SDS011;67726;45.636;11.752;2023-12-29T13:25:39;36.60;;;22.23;;
78053;SDS011;67726;45.636;11.752;2023-12-29T13:28:08;38.35;;;21.85;;
78053;SDS011;67726;45.636;11.752;2023-12-29T13:30:34;38.67;;;21.00;;
78053;SDS011;67726;45.636;11.752;2023-12-29T13:33:10;42.13;;;21.77;;
78053;SDS011;67726;45.636;11.752;2023-12-29T13:35:47;44.25;;;22.50;;
78053;SDS011;67726;45.636;11.752;2023-12-29T13:38:25;42.55;;;22.88;;
78053;SDS011;67726;45.636;11.752;2023-12-29T13:40:55;39.60;;;21.10;;
78053;SDS011;67726;45.636;11.752;2023-12-29T13:43:29;37.28;;;19.02;;
78053;SDS011;67726;45.636;11.752;2023-12-29T13:45:57;32.27;;;17.63;;
78053;SDS011;67726;45.636;11.752;2023-12-29T13:48:24;32.22;;;17.05;;
78053;SDS011;67726;45.636;11.752;2023-12-29T13:50:51;36.00;;;18.65;;
78053;SDS011;67726;45.636;11.752;2023-12-29T13:53:20;35.60;;;17.70;;
78053;SDS011;67726;45.636;11.752;2023-12-29T13:55:47;29.40;;;16.05;;
78053;SDS011;67726;45.636;11.752;2023-12-29T13:58:15;33.47;;;16.60;;
78053;SDS011;67726;45.636;11.752;2023-12-29T14:00:42;32.65;;;16.73;;
78053;SDS011;67726;45.636;11.752;2023-12-29T14:03:27;34.58;;;17.92;;
78053;SDS011;67726;45.636;11.752;2023-12-29T14:06:07;33.73;;;17.53;;
78053;SDS011;67726;45.636;11.752;2023-12-29T14:08:33;36.53;;;18.05;;
78053;SDS011;67726;45.636;11.752;2023-12-29T14:11:08;34.95;;;19.13;;
78053;SDS011;67726;45.636;11.752;2023-12-29T14:13:34;34.63;;;18.08;;
78053;SDS011;67726;45.636;11.752;2023-12-29T14:16:00;32.55;;;18.42;;
78053;SDS011;67726;45.636;11.752;2023-12-29T14:21:22;35.35;;;17.65;;
78053;SDS011;67726;45.636;11.752;2023-12-29T14:26:37;36.95;;;19.00;;
78053;SDS011;67726;45.636;11.752;2023-12-29T14:29:19;35.95;;;19.75;;
78053;SDS011;67726;45.636;11.752;2023-12-29T14:31:47;39.20;;;21.27;;
78053;SDS011;67726;45.636;11.752;2023-12-29T14:34:14;39.88;;;20.98;;
78053;SDS011;67726;45.636;11.752;2023-12-29T14:36:40;41.78;;;21.75;;